Ride Results

Batlow (19-03-1989)
Ride distance: 100.0 km

Outcomes - Batlow (19-03-1989)
Division No. of Entries Retired / DNE Completed Withdrawn Ineligible V/O Percentage Completed
HW 3 - 2 1 - - 66.67%
MW 14 - 9 2 - 3 64.29%
LW 7 - 6 - - 1 85.71%
JN 5 - 2 1 - 2 40.00%
Totals 29 - 19 4 - 6 65.52%
Results - Batlow (19-03-1989)
No. Rider Horse Place Time Leg Speeds Total
Km/Hr
H/R bpm
Heavyweight
2285 Jack Sims Fame 1 7:29:00 12.8, 13.8 13.36 34, 40, 45 (Avg:42)
2286 John Lee Bondo 2 7:59:00 15.7, 10.4 12.53 32, 53, 60 (Avg:56)
32 Brett A. Lucas Willis Widthdrawn L1 0:00:00 - - 42, 48 (Avg:48)
Middleweight
2282 Michael Piper Myrimbah Bey 1 6:24:00 16.0, 15.2 15.63 38, 46, 56 (Avg:51)
2281 Rowena Robinson Deakin Blue 1 (BC) 6:24:00 16.0, 15.2 15.63 35, 48, 55 (Avg:51)
2283 Kim Stephens Henley Farm Ahsan 3 6:40:00 15.7, 14.3 15.00 0
6 Bob Neal Kyang Khazman 4 6:40:05 14.3, 15.6 15.00 37, 49, 47 (Avg:48)
2284 Trapper Walsh Dusty 5 6:40:10 15.7, 14.3 14.99 33, 50, 60 (Avg:55)
4362 Chris Cheney Kayhler 6 9:05:00 11.1, 10.9 11.01 40, 48, 54 (Avg:51)
2287 Tony Russell Dynamo 6 9:05:00 11.3, 10.7 11.01 38, 46, 50 (Avg:48)
2288 Noel Morrow Glenallan Shogun 8 9:15:40 9.8, 11.9 10.80 38, 43, 48 (Avg:45)
2289 Patricia Lee Beauty 9 9:15:50 9.7, 12.1 10.79 34, 46, 56 (Avg:51)
4 Don Paton Glenallan Soloman Heart Rate L2 0:00:00 19.6, 19.1 - 42, 47, 65 (Avg:56)
3 Suezette Brooks Bandit Lame L1 0:00:00 17.3 - 42, 50 (Avg:50)
1 Laurie Dowling Henley Farm Difda Widthdrawn L1 0:00:00 - - 40, 54 (Avg:54)
18583 Jan Neal Flamizak Widthdrawn L1 0:00:00 - - 43, 52 (Avg:52)
5 Jenny Oliver Glenallan Nomad Metabolics L1 0:00:00 17.3 - 35, 50 (Avg:50)
Lightweight
2292 Janette Harvey Faraway Rocalong 1 6:03:00 14.2, 19.6 16.53 31, 41, 59 (Avg:50)
2293 Katharine Williams Poco Loco 2 7:07:00 12.8, 15.4 14.05 44, 43, 48 (Avg:45)
4941 Rick Owen Brutus 3 7:23:00 14.1, 12.9 13.54 44, 51, 58 (Avg:54)
2294 Gillian Petersohn Craiglea Tiki 4 7:28:00 14.1, 12.7 13.39 41, 42, 52 (Avg:47)
2295 Patricia Dunn Trooper 5 9:15:30 9.8, 11.9 10.80 36, 44, 42 (Avg:43)
2296 Matthew G. Mason Sirocco 6 9:15:40 9.7, 12.1 10.80 35, 45, 60 (Avg:52)
43 Jason N. Lee Osterleys Ajax Lame L1 0:00:00 15.7 - 40, 44 (Avg:44)
Junior
2290 Kirsty Moore Coco 1 7:07:00 12.1, 16.5 14.05 42, 50, 50 (Avg:50)
2291 Leith Moore Aloha Galaxy 2 7:07:05 12.1, 16.5 14.05 48, 46, 54 (Avg:50)
54 Paul Cheney Coolaroo Kah-lea Widthdrawn L1 0:00:00 - - 38, 46 (Avg:46)
50 Krista Cheney Cleo Lame L1 0:00:00 14.3 - 43, 49 (Avg:49)
53 Claudette Rankin Casey Lame L1 0:00:00 12.8 - 34, 45 (Avg:45)